Terminal Aerodrome Forecast
Issued by NWS

Home | Current Version | Previous Version | Text Only | Print | Product List | Glossary On
Versions: 1 2 3 4 5 6 7 8 9 10 11 12 13 14 15 16 17 18
041
FTUS46 KHNX 201506 AAA
TAFMER
TAF AMD
KMER 201506Z 2015/2112 15015G21KT P6SM -RA SCT002 OVC030
      TEMPO 2015/2018 15025G35KT 3SM +RA BR BKN002
     FM202000 24011KT P6SM -SHRA SCT025 BKN040
      TEMPO 2022/2102 3SM TSRAPL BKN025CB
     FM210300 28013KT P6SM -SHRA OVC040=

USA.gov is the U.S. government's official web portal to all federal, state and local government web resources and services.